Deline, Canada
Current Conditions -  °F | °C
As of 5:00 PM on Friday 24 Oct 2014 (Local Time) from CYWJ Reporting Station
Broken Clouds Broken Clouds  
Wind Chill:   Ceiling: 800
Heat Index: 19°   Visibility: 10mi
Dew Point: 18°   Wind: 8mph
Humidity: 93%   Direction: 310°NW
Pressure: 29.8"   Gusts: NA
Location:  65.18°N, 123.42°W
Report Text: CYWJ 242300Z 31007KT 10SM BKN008 M07/M08 A2980 RMK ST7 -6.4/-7.5/0/16 MUCH LOOSE LAST OB/NEXT 251300UTC SLP110
Loading
Personal Weather Stations






























Interactive Weather Map
Tropical Storm Tracking
New forecast layout! Learn more

10-Day Weather Forecast

Advertisements
Track Severe Weather on mobile